Tortuga — WAE8888 — position and weather

sailwx.info

Track history (hours):
 
Tides and Currents Weather Stations Pressure Air Temp Water Temp Dewpoint Dewpoint Depression Visibility Wind Speed Wind Dir Waves Ship Positions

Tortuga

Owner: COPE, RAYMOND H, panama city beach, FL. More information available from US FCC via Universal Licensing System and Coast Guard Vessel Documentation Center.

Last reported at 2017-Oct-24 16:22 UTC. Time now 2017-Nov-20 07:58 UTC.
Position N 31°50' W 081°09'.
Warning: this ship's position is 26 days out of date.

Length 24 m; draft 1.5 m.

Type: Pleasure craft. MMSI: 338065964.

Date/timePositionNaut miles runAvg speedWind from/ knotsBaromVisibWave heightAir tempDewpointWater temp
2017-Oct-24 16:22N 31°50' W 081°09'4 8.4
2017-Oct-24 15:57N 31°51' W 081°05'3 6.0
2017-Oct-24 15:30N 31°54' W 081°06'2 4.0
2017-Oct-24 15:00N 31°55' W 081°04'3 7.0
2017-Oct-24 14:30N 31°59' W 081°03'3 5.8
2017-Oct-24 14:00N 32°01' W 081°01'2 4.5
2017-Oct-24 13:30N 32°03' W 081°02'3 5.6
2017-Oct-24 13:00N 32°04' W 080°59'3 6.4
2017-Oct-24 12:30N 32°05' W 080°55'3 6.7
2017-Oct-24 12:00N 32°08' W 080°53'2 4.5
2017-Oct-24 11:30N 32°09' W 080°51'0 0.0
2017-Oct-24 11:00N 32°09' W 080°51'0 0.0
2017-Oct-24 10:28N 32°09' W 080°51'0 0.0
2017-Oct-24 09:58N 32°09' W 080°51'0 0.0
2017-Oct-24 09:28N 32°09' W 080°51'0 0.0
2017-Oct-24 08:52N 32°09' W 080°51'0 0.0
2017-Oct-24 07:28N 32°09' W 080°51'0 0.0
2017-Oct-24 06:10N 32°09' W 080°51'0 0.0
2017-Oct-24 05:58N 32°09' W 080°51'0 0.0
2017-Oct-24 05:28N 32°09' W 080°51'0 0.0
2017-Oct-24 04:58N 32°09' W 080°51'0 0.0
2017-Oct-24 04:28N 32°09' W 080°51'0 0.0
2017-Oct-24 03:58N 32°09' W 080°51'0 0.0
2017-Oct-24 03:28N 32°09' W 080°51'0 0.0
2017-Oct-24 02:58N 32°09' W 080°51'0 0.0
2017-Oct-24 02:28N 32°09' W 080°51'0 0.0
2017-Oct-24 01:58N 32°09' W 080°51'0 0.0
2017-Oct-24 01:28N 32°09' W 080°51'0 0.0
2017-Oct-24 00:58N 32°09' W 080°51'0 0.0
2017-Oct-24 00:22N 32°09' W 080°51'0 0.0
2017-Oct-23 23:58N 32°09' W 080°51'0 0.0
2017-Oct-23 23:28N 32°09' W 080°51'0 0.0
2017-Oct-23 22:52N 32°09' W 080°51'0 0.0
2017-Oct-23 22:28N 32°09' W 080°51'0 0.0
2017-Oct-23 21:58N 32°09' W 080°51'0 0.0
2017-Oct-23 21:22N 32°09' W 080°51'0 0.0
2017-Oct-23 20:58N 32°09' W 080°51'0 0.0
2017-Oct-23 20:16N 32°09' W 080°51'0 0.1
2017-Oct-23 20:00N 32°09' W 080°51'1 2.0
2017-Oct-23 19:29N 32°09' W 080°50'  
2017-Oct-20 13:08N 34°34' W 076°54'1 8.6
2017-Oct-20 12:59N 34°35' W 076°52'4 8.6
2017-Oct-20 12:30N 34°37' W 076°48'4 8.7
2017-Oct-20 12:00N 34°39' W 076°43'4 7.6
2017-Oct-20 11:30N 34°41' W 076°40'3 5.5
2017-Oct-20 11:00N 34°43' W 076°42'0 0.0
2017-Oct-20 10:28N 34°43' W 076°42'0 0.0
2017-Oct-20 09:58N 34°43' W 076°42'0 0.0
2017-Oct-20 09:28N 34°43' W 076°42'0 0.0
2017-Oct-20 08:58N 34°43' W 076°42'0 0.0
2017-Oct-20 08:28N 34°43' W 076°42'0 0.0
2017-Oct-20 07:58N 34°43' W 076°42'0 0.0
2017-Oct-20 07:28N 34°43' W 076°42'0 0.0
2017-Oct-20 06:58N 34°43' W 076°42'0 0.0
2017-Oct-20 06:28N 34°43' W 076°42'0 0.0
2017-Oct-20 05:58N 34°43' W 076°42'0 0.0
2017-Oct-20 05:28N 34°43' W 076°42'0 0.0
2017-Oct-20 04:58N 34°43' W 076°42'0 0.0
2017-Oct-20 04:28N 34°43' W 076°42'0 0.0
2017-Oct-20 03:58N 34°43' W 076°42'0 0.0
2017-Oct-20 03:28N 34°43' W 076°42'0 0.0
2017-Oct-20 02:58N 34°43' W 076°42'0 0.0
2017-Oct-20 02:28N 34°43' W 076°42'0 0.0
2017-Oct-20 01:58N 34°43' W 076°42'0 0.0
2017-Oct-20 01:28N 34°43' W 076°42'0 0.0
2017-Oct-20 00:58N 34°43' W 076°42'0 0.0
2017-Oct-20 00:28N 34°43' W 076°42'0 0.0
2017-Oct-19 23:58N 34°43' W 076°42'0 0.0
2017-Oct-19 23:28N 34°43' W 076°42'0 0.0
2017-Oct-19 22:58N 34°43' W 076°42'0 0.0
2017-Oct-19 22:28N 34°43' W 076°42'0 0.0
2017-Oct-19 21:55N 34°43' W 076°42'0 0.0
2017-Oct-19 21:28N 34°43' W 076°42'0 0.0
2017-Oct-19 20:58N 34°43' W 076°42'0 0.0
2017-Oct-19 20:28N 34°43' W 076°42'0 0.0
2017-Oct-19 19:58N 34°43' W 076°42'0 0.0
2017-Oct-19 19:28N 34°43' W 076°42'0 0.0
2017-Oct-19 18:58N 34°43' W 076°42'0 0.0
2017-Oct-19 18:28N 34°43' W 076°42'0 0.0
2017-Oct-19 17:58N 34°43' W 076°42'0 0.0
2017-Oct-19 17:28N 34°43' W 076°42'0 0.0
2017-Oct-19 16:58N 34°43' W 076°42'0 0.0
2017-Oct-19 16:28N 34°43' W 076°42'0 0.0
2017-Oct-19 15:58N 34°43' W 076°42'0 0.0
2017-Oct-19 15:28N 34°43' W 076°42'0 0.0
2017-Oct-19 14:58N 34°43' W 076°42'0 0.0
2017-Oct-19 14:28N 34°43' W 076°42'0 0.0
2017-Oct-19 13:58N 34°43' W 076°42'0 0.0
2017-Oct-19 13:28N 34°43' W 076°42'0 0.0
2017-Oct-19 12:58N 34°43' W 076°42'0 0.0
2017-Oct-19 12:28N 34°43' W 076°42'0 0.0
2017-Oct-19 11:58N 34°43' W 076°42'0 0.0
2017-Oct-19 11:28N 34°43' W 076°42'0 0.0
2017-Oct-19 10:58N 34°43' W 076°42'0 0.0
2017-Oct-19 10:28N 34°43' W 076°42'0 0.0
2017-Oct-19 09:58N 34°43' W 076°42'0 0.0
2017-Oct-19 09:28N 34°43' W 076°42'0 0.0
2017-Oct-19 08:58N 34°43' W 076°42'0 0.0
2017-Oct-19 08:28N 34°43' W 076°42'0 0.0
2017-Oct-19 07:58N 34°43' W 076°42'0 0.0
2017-Oct-19 07:28N 34°43' W 076°42'0 0.0
2017-Oct-19 06:58N 34°43' W 076°42'0 0.0
2017-Oct-19 06:28N 34°43' W 076°42'0 0.0
2017-Oct-19 05:58N 34°43' W 076°42'0 0.0
2017-Oct-19 05:28N 34°43' W 076°42'0 0.0
2017-Oct-19 04:58N 34°43' W 076°42'0 0.0
2017-Oct-19 04:28N 34°43' W 076°42'0 0.0
2017-Oct-19 03:58N 34°43' W 076°42'0 0.0
2017-Oct-19 03:28N 34°43' W 076°42'0 0.0
2017-Oct-19 02:58N 34°43' W 076°42'0 0.0
2017-Oct-19 02:28N 34°43' W 076°42'0 0.0
2017-Oct-19 01:58N 34°43' W 076°42'0 0.0
2017-Oct-19 01:28N 34°43' W 076°42'0 0.0
2017-Oct-19 00:58N 34°43' W 076°42'0 0.0
2017-Oct-19 00:28N 34°43' W 076°42'0 0.0
2017-Oct-18 23:58N 34°43' W 076°42'0 0.0
2017-Oct-18 23:28N 34°43' W 076°42'0 0.0
2017-Oct-18 22:58N 34°43' W 076°42'0 0.0
2017-Oct-18 22:25N 34°43' W 076°42'0 0.0
2017-Oct-18 21:58N 34°43' W 076°42'0 0.0
2017-Oct-18 21:28N 34°43' W 076°42'0 0.0
2017-Oct-18 20:58N 34°43' W 076°42'0 0.0
2017-Oct-18 20:30N 34°43' W 076°42'0 0.0
2017-Oct-18 20:00N 34°43' W 076°42'2 3.1
2017-Oct-18 19:30N 34°44' W 076°41'4 8.0
2017-Oct-18 19:00N 34°48' W 076°41'4 8.9
2017-Oct-18 18:30N 34°53' W 076°41'  
2017-Oct-16 11:54N 36°43' W 076°14'0 0.0
2017-Oct-15 21:26N 36°43' W 076°14'1 1.2
2017-Oct-15 20:29N 36°44' W 076°15'3 6.4
2017-Oct-15 20:00N 36°46' W 076°18'1 1.4
2017-Oct-15 19:30N 36°47' W 076°18'  
Track history (hours):
 
Tides and Currents Weather Stations Pressure Air Temp Water Temp Dewpoint Dewpoint Depression Visibility Wind Speed Wind Dir Waves Ship Positions

Tortuga

Owner: COPE, RAYMOND H, panama city beach, FL. More information available from US FCC via Universal Licensing System and Coast Guard Vessel Documentation Center.

Last reported at 2017-Oct-24 16:22 UTC. Time now 2017-Nov-20 07:58 UTC.
Position N 31°50' W 081°09'.
Warning: this ship's position is 26 days out of date.

Length 24 m; draft 1.5 m.

Type: Pleasure craft. MMSI: 338065964.

Date/timePositionNaut miles runAvg speedWind from/ knotsBaromVisibWave heightAir tempDewpointWater temp
2017-Oct-24 16:22N 31°50' W 081°09'4 8.4
2017-Oct-24 15:57N 31°51' W 081°05'3 6.0
2017-Oct-24 15:30N 31°54' W 081°06'2 4.0
2017-Oct-24 15:00N 31°55' W 081°04'3 7.0
2017-Oct-24 14:30N 31°59' W 081°03'3 5.8
2017-Oct-24 14:00N 32°01' W 081°01'2 4.5
2017-Oct-24 13:30N 32°03' W 081°02'3 5.6
2017-Oct-24 13:00N 32°04' W 080°59'3 6.4
2017-Oct-24 12:30N 32°05' W 080°55'3 6.7
2017-Oct-24 12:00N 32°08' W 080°53'2 4.5
2017-Oct-24 11:30N 32°09' W 080°51'0 0.0
2017-Oct-24 11:00N 32°09' W 080°51'0 0.0
2017-Oct-24 10:28N 32°09' W 080°51'0 0.0
2017-Oct-24 09:58N 32°09' W 080°51'0 0.0
2017-Oct-24 09:28N 32°09' W 080°51'0 0.0
2017-Oct-24 08:52N 32°09' W 080°51'0 0.0
2017-Oct-24 07:28N 32°09' W 080°51'0 0.0
2017-Oct-24 06:10N 32°09' W 080°51'0 0.0
2017-Oct-24 05:58N 32°09' W 080°51'0 0.0
2017-Oct-24 05:28N 32°09' W 080°51'0 0.0
2017-Oct-24 04:58N 32°09' W 080°51'0 0.0
2017-Oct-24 04:28N 32°09' W 080°51'0 0.0
2017-Oct-24 03:58N 32°09' W 080°51'0 0.0
2017-Oct-24 03:28N 32°09' W 080°51'0 0.0
2017-Oct-24 02:58N 32°09' W 080°51'0 0.0
2017-Oct-24 02:28N 32°09' W 080°51'0 0.0
2017-Oct-24 01:58N 32°09' W 080°51'0 0.0
2017-Oct-24 01:28N 32°09' W 080°51'0 0.0
2017-Oct-24 00:58N 32°09' W 080°51'0 0.0
2017-Oct-24 00:22N 32°09' W 080°51'0 0.0
2017-Oct-23 23:58N 32°09' W 080°51'0 0.0
2017-Oct-23 23:28N 32°09' W 080°51'0 0.0
2017-Oct-23 22:52N 32°09' W 080°51'0 0.0
2017-Oct-23 22:28N 32°09' W 080°51'0 0.0
2017-Oct-23 21:58N 32°09' W 080°51'0 0.0
2017-Oct-23 21:22N 32°09' W 080°51'0 0.0
2017-Oct-23 20:58N 32°09' W 080°51'0 0.0
2017-Oct-23 20:16N 32°09' W 080°51'0 0.1
2017-Oct-23 20:00N 32°09' W 080°51'1 2.0
2017-Oct-23 19:29N 32°09' W 080°50'  
2017-Oct-20 13:08N 34°34' W 076°54'1 8.6
2017-Oct-20 12:59N 34°35' W 076°52'4 8.6
2017-Oct-20 12:30N 34°37' W 076°48'4 8.7
2017-Oct-20 12:00N 34°39' W 076°43'4 7.6
2017-Oct-20 11:30N 34°41' W 076°40'3 5.5
2017-Oct-20 11:00N 34°43' W 076°42'0 0.0
2017-Oct-20 10:28N 34°43' W 076°42'0 0.0
2017-Oct-20 09:58N 34°43' W 076°42'0 0.0
2017-Oct-20 09:28N 34°43' W 076°42'0 0.0
2017-Oct-20 08:58N 34°43' W 076°42'0 0.0
2017-Oct-20 08:28N 34°43' W 076°42'0 0.0
2017-Oct-20 07:58N 34°43' W 076°42'0 0.0
2017-Oct-20 07:28N 34°43' W 076°42'0 0.0
2017-Oct-20 06:58N 34°43' W 076°42'0 0.0
2017-Oct-20 06:28N 34°43' W 076°42'0 0.0
2017-Oct-20 05:58N 34°43' W 076°42'0 0.0
2017-Oct-20 05:28N 34°43' W 076°42'0 0.0
2017-Oct-20 04:58N 34°43' W 076°42'0 0.0
2017-Oct-20 04:28N 34°43' W 076°42'0 0.0
2017-Oct-20 03:58N 34°43' W 076°42'0 0.0
2017-Oct-20 03:28N 34°43' W 076°42'0 0.0
2017-Oct-20 02:58N 34°43' W 076°42'0 0.0
2017-Oct-20 02:28N 34°43' W 076°42'0 0.0
2017-Oct-20 01:58N 34°43' W 076°42'0 0.0
2017-Oct-20 01:28N 34°43' W 076°42'0 0.0
2017-Oct-20 00:58N 34°43' W 076°42'0 0.0
2017-Oct-20 00:28N 34°43' W 076°42'0 0.0
2017-Oct-19 23:58N 34°43' W 076°42'0 0.0
2017-Oct-19 23:28N 34°43' W 076°42'0 0.0
2017-Oct-19 22:58N 34°43' W 076°42'0 0.0
2017-Oct-19 22:28N 34°43' W 076°42'0 0.0
2017-Oct-19 21:55N 34°43' W 076°42'0 0.0
2017-Oct-19 21:28N 34°43' W 076°42'0 0.0
2017-Oct-19 20:58N 34°43' W 076°42'0 0.0
2017-Oct-19 20:28N 34°43' W 076°42'0 0.0
2017-Oct-19 19:58N 34°43' W 076°42'0 0.0
2017-Oct-19 19:28N 34°43' W 076°42'0 0.0
2017-Oct-19 18:58N 34°43' W 076°42'0 0.0
2017-Oct-19 18:28N 34°43' W 076°42'0 0.0
2017-Oct-19 17:58N 34°43' W 076°42'0 0.0
2017-Oct-19 17:28N 34°43' W 076°42'0 0.0
2017-Oct-19 16:58N 34°43' W 076°42'0 0.0
2017-Oct-19 16:28N 34°43' W 076°42'0 0.0
2017-Oct-19 15:58N 34°43' W 076°42'0 0.0
2017-Oct-19 15:28N 34°43' W 076°42'0 0.0
2017-Oct-19 14:58N 34°43' W 076°42'0 0.0
2017-Oct-19 14:28N 34°43' W 076°42'0 0.0
2017-Oct-19 13:58N 34°43' W 076°42'0 0.0
2017-Oct-19 13:28N 34°43' W 076°42'0 0.0
2017-Oct-19 12:58N 34°43' W 076°42'0 0.0
2017-Oct-19 12:28N 34°43' W 076°42'0 0.0
2017-Oct-19 11:58N 34°43' W 076°42'0 0.0
2017-Oct-19 11:28N 34°43' W 076°42'0 0.0
2017-Oct-19 10:58N 34°43' W 076°42'0 0.0
2017-Oct-19 10:28N 34°43' W 076°42'0 0.0
2017-Oct-19 09:58N 34°43' W 076°42'0 0.0
2017-Oct-19 09:28N 34°43' W 076°42'0 0.0
2017-Oct-19 08:58N 34°43' W 076°42'0 0.0
2017-Oct-19 08:28N 34°43' W 076°42'0 0.0
2017-Oct-19 07:58N 34°43' W 076°42'0 0.0
2017-Oct-19 07:28N 34°43' W 076°42'0 0.0
2017-Oct-19 06:58N 34°43' W 076°42'0 0.0
2017-Oct-19 06:28N 34°43' W 076°42'0 0.0
2017-Oct-19 05:58N 34°43' W 076°42'0 0.0
2017-Oct-19 05:28N 34°43' W 076°42'0 0.0
2017-Oct-19 04:58N 34°43' W 076°42'0 0.0
2017-Oct-19 04:28N 34°43' W 076°42'0 0.0
2017-Oct-19 03:58N 34°43' W 076°42'0 0.0
2017-Oct-19 03:28N 34°43' W 076°42'0 0.0
2017-Oct-19 02:58N 34°43' W 076°42'0 0.0
2017-Oct-19 02:28N 34°43' W 076°42'0 0.0
2017-Oct-19 01:58N 34°43' W 076°42'0 0.0
2017-Oct-19 01:28N 34°43' W 076°42'0 0.0
2017-Oct-19 00:58N 34°43' W 076°42'0 0.0
2017-Oct-19 00:28N 34°43' W 076°42'0 0.0
2017-Oct-18 23:58N 34°43' W 076°42'0 0.0
2017-Oct-18 23:28N 34°43' W 076°42'0 0.0
2017-Oct-18 22:58N 34°43' W 076°42'0 0.0
2017-Oct-18 22:25N 34°43' W 076°42'0 0.0
2017-Oct-18 21:58N 34°43' W 076°42'0 0.0
2017-Oct-18 21:28N 34°43' W 076°42'0 0.0
2017-Oct-18 20:58N 34°43' W 076°42'0 0.0
2017-Oct-18 20:30N 34°43' W 076°42'0 0.0
2017-Oct-18 20:00N 34°43' W 076°42'2 3.1
2017-Oct-18 19:30N 34°44' W 076°41'4 8.0
2017-Oct-18 19:00N 34°48' W 076°41'4 8.9
2017-Oct-18 18:30N 34°53' W 076°41'  
2017-Oct-16 11:54N 36°43' W 076°14'0 0.0
2017-Oct-15 21:26N 36°43' W 076°14'1 1.2
2017-Oct-15 20:29N 36°44' W 076°15'3 6.4
2017-Oct-15 20:00N 36°46' W 076°18'1 1.4
2017-Oct-15 19:30N 36°47' W 076°18'  

Dump ship's entire track history